createdAt,value
2018-07-08T00:01:42.426Z,102098.09
2018-07-08T00:04:11.149Z,102096.96
2018-07-08T00:06:39.603Z,102100.27
2018-07-08T00:09:08.472Z,102093.77
2018-07-08T00:11:37.012Z,102103.88
2018-07-08T00:14:05.929Z,102096.53
2018-07-08T00:16:34.785Z,102092.91
2018-07-08T00:19:03.304Z,102098.13
2018-07-08T00:21:31.887Z,102098.54
2018-07-08T00:24:00.345Z,102098.87
2018-07-08T00:26:28.817Z,102101.37
2018-07-08T00:28:57.364Z,102104.98
2018-07-08T00:31:26.053Z,102101.45
2018-07-08T00:33:54.861Z,102101.41
2018-07-08T00:36:23.321Z,102095.58
2018-07-08T00:38:51.800Z,102097.47
2018-07-08T00:41:20.458Z,102098.71
2018-07-08T00:43:49.058Z,102094.80
2018-07-08T00:46:18.185Z,102103.76
2018-07-08T00:48:46.562Z,102102.45
2018-07-08T00:51:15.321Z,102102.88
2018-07-08T00:53:43.862Z,102106.80
2018-07-08T00:56:12.792Z,102108.02
2018-07-08T00:58:41.314Z,102113.50
2018-07-08T01:01:09.928Z,102108.30
2018-07-08T01:03:38.565Z,102121.02
2018-07-08T01:06:07.209Z,102123.80
2018-07-08T01:08:35.735Z,102124.80
2018-07-08T01:11:04.415Z,102126.50
2018-07-08T01:13:32.987Z,102121.16
2018-07-08T01:16:01.385Z,102128.64
2018-07-08T01:18:29.844Z,102131.36
2018-07-08T01:20:58.402Z,102130.41
2018-07-08T01:23:26.924Z,102128.08
2018-07-08T01:26:12.594Z,102134.31
2018-07-08T01:28:41.687Z,102136.69
2018-07-08T01:31:11.585Z,102130.75
2018-07-08T01:33:40.252Z,102137.13
2018-07-08T01:36:09.442Z,102133.91
2018-07-08T01:38:37.935Z,102135.64
2018-07-08T01:41:06.880Z,102140.84
2018-07-08T01:43:35.468Z,102141.81
2018-07-08T01:46:03.913Z,102141.31
2018-07-08T01:48:32.773Z,102148.27
2018-07-08T01:51:01.326Z,102145.21
2018-07-08T01:53:30.250Z,102150.45
2018-07-08T01:55:58.852Z,102149.67
2018-07-08T01:58:27.458Z,102155.22
2018-07-08T02:00:55.736Z,102152.73
2018-07-08T02:03:24.396Z,102161.56
2018-07-08T02:05:52.978Z,102157.01
2018-07-08T02:08:22.035Z,102157.69
2018-07-08T02:10:50.609Z,102161.29
2018-07-08T02:13:19.303Z,102162.91
2018-07-08T02:15:47.817Z,102166.88
2018-07-08T02:18:16.279Z,102177.44
2018-07-08T02:20:45.889Z,102171.59
2018-07-08T02:23:14.548Z,102169.27
2018-07-08T02:25:43.402Z,102174.36
2018-07-08T02:28:11.967Z,102172.91
2018-07-08T02:30:40.433Z,102170.53
2018-07-08T02:33:09.213Z,102176.81
2018-07-08T02:35:37.612Z,102180.09
2018-07-08T02:38:06.094Z,102185.47
2018-07-08T02:40:35.879Z,102186.43
2018-07-08T02:43:04.335Z,102182.05
2018-07-08T02:45:32.840Z,102184.05
2018-07-08T02:48:01.429Z,102191.56
2018-07-08T02:50:29.944Z,102190.95
2018-07-08T02:52:58.613Z,102182.75
2018-07-08T02:55:27.359Z,102186.04
2018-07-08T02:57:56.136Z,102190.13
2018-07-08T03:00:24.622Z,102180.72
2018-07-08T03:02:53.310Z,102180.41
2018-07-08T03:05:21.827Z,102181.03
2018-07-08T03:07:50.439Z,102176.52
2018-07-08T03:10:18.975Z,102174.89
2018-07-08T03:12:47.580Z,102172.50
2018-07-08T03:15:16.207Z,102175.76
2018-07-08T03:17:44.716Z,102177.98
2018-07-08T03:20:12.986Z,102172.95
2018-07-08T03:22:41.351Z,102179.18
2018-07-08T03:25:10.067Z,102179.08
2018-07-08T03:27:38.686Z,102179.37
2018-07-08T03:30:07.135Z,102180.62
2018-07-08T03:32:35.744Z,102182.30
2018-07-08T03:35:04.276Z,102185.86
2018-07-08T03:37:32.818Z,102183.59
2018-07-08T03:40:01.465Z,102186.72
2018-07-08T03:42:30.209Z,102176.73
2018-07-08T03:44:59.016Z,102186.61
2018-07-08T03:47:27.410Z,102185.27
2018-07-08T03:49:56.237Z,102191.94
2018-07-08T03:52:25.083Z,102182.01
2018-07-08T03:54:53.644Z,102190.83
2018-07-08T03:57:22.224Z,102191.36
2018-07-08T03:59:50.669Z,102189.37
2018-07-08T04:02:19.203Z,102183.49
2018-07-08T04:04:47.793Z,102199.08
2018-07-08T04:07:16.481Z,102200.06
2018-07-08T04:09:45.038Z,102200.88
2018-07-08T04:12:13.525Z,102207.40
2018-07-08T04:14:42.035Z,102199.37
2018-07-08T04:17:10.722Z,102199.12
2018-07-08T04:19:39.247Z,102203.05
2018-07-08T04:22:08.014Z,102192.75
2018-07-08T04:24:36.466Z,102197.02
2018-07-08T04:27:05.268Z,102194.93
2018-07-08T04:29:34.186Z,102201.19
2018-07-08T04:32:02.584Z,102203.36
2018-07-08T04:34:31.272Z,102205.84
2018-07-08T04:37:00.064Z,102208.95
2018-07-08T04:39:28.705Z,102211.25
2018-07-08T04:41:57.230Z,102223.09
2018-07-08T04:44:25.881Z,102220.25
2018-07-08T04:46:54.272Z,102222.25
2018-07-08T04:49:23.048Z,102223.41
2018-07-08T04:51:51.479Z,102229.59
2018-07-08T04:54:19.973Z,102232.28
2018-07-08T04:56:48.600Z,102231.77
2018-07-08T04:59:17.310Z,102234.48
2018-07-08T05:01:45.722Z,102224.91
2018-07-08T05:04:14.136Z,102226.86
2018-07-08T05:06:42.931Z,102225.12
2018-07-08T05:09:11.369Z,102232.79
2018-07-08T05:11:40.140Z,102232.66
2018-07-08T05:14:08.622Z,102235.28
2018-07-08T05:16:37.321Z,102239.17
2018-07-08T05:19:06.023Z,102237.87
2018-07-08T05:21:34.636Z,102236.97
2018-07-08T05:24:03.215Z,102237.59
2018-07-08T05:26:31.720Z,102237.33
2018-07-08T05:29:00.580Z,102244.41
2018-07-08T05:31:29.071Z,102244.52
2018-07-08T05:33:57.632Z,102243.61
2018-07-08T05:36:26.088Z,102245.14
2018-07-08T05:38:54.633Z,102254.30
2018-07-08T05:41:23.067Z,102250.95
2018-07-08T05:43:52.025Z,102255.10
2018-07-08T05:46:20.630Z,102254.37
2018-07-08T05:48:49.237Z,102249.21
2018-07-08T05:51:18.062Z,102248.27
2018-07-08T05:53:46.434Z,102249.72
2018-07-08T05:56:14.961Z,102250.25
2018-07-08T05:58:43.778Z,102249.80
2018-07-08T06:01:12.326Z,102244.02
2018-07-08T06:03:40.808Z,102236.55
2018-07-08T06:06:09.402Z,102235.20
2018-07-08T06:08:38.135Z,102234.27
2018-07-08T06:11:07.115Z,102235.88
2018-07-08T06:13:35.546Z,102235.77
2018-07-08T06:16:04.045Z,102228.33
2018-07-08T06:18:32.526Z,102234.06
2018-07-08T06:21:01.162Z,102228.93
2018-07-08T06:23:29.882Z,102234.37
2018-07-08T06:25:58.323Z,102231.12
2018-07-08T06:28:27.059Z,102241.80
2018-07-08T06:30:55.792Z,102236.34
2018-07-08T06:33:24.511Z,102241.51
2018-07-08T06:35:53.012Z,102242.12
2018-07-08T06:38:21.572Z,102240.97
2018-07-08T06:40:49.885Z,102238.09
2018-07-08T06:43:19.716Z,102234.23
2018-07-08T06:45:49.595Z,102239.94
2018-07-08T06:48:18.099Z,102239.66
2018-07-08T06:50:49.929Z,102243.27
2018-07-08T06:53:18.307Z,102246.16
2018-07-08T06:55:46.949Z,102246.36
2018-07-08T06:58:16.808Z,102249.98
2018-07-08T07:00:45.599Z,102247.17
2018-07-08T07:03:14.007Z,102244.60
2018-07-08T07:05:42.558Z,102241.82
2018-07-08T07:08:11.295Z,102240.45
2018-07-08T07:10:39.814Z,102244.70
2018-07-08T07:13:08.255Z,102242.53
2018-07-08T07:15:36.861Z,102235.59
2018-07-08T07:18:05.676Z,102242.47
2018-07-08T07:20:34.441Z,102237.74
2018-07-08T07:23:02.889Z,102242.44
2018-07-08T07:25:31.517Z,102256.81
2018-07-08T07:28:00.085Z,102252.58
2018-07-08T07:30:28.571Z,102257.35
2018-07-08T07:32:57.112Z,102250.80
2018-07-08T07:35:25.631Z,102252.70
2018-07-08T07:37:54.664Z,102246.98
2018-07-08T07:40:23.222Z,102240.45
2018-07-08T07:42:52.693Z,102245.94
2018-07-08T07:45:24.433Z,102248.95
2018-07-08T07:47:52.824Z,102254.94
2018-07-08T07:50:31.912Z,102245.52
2018-07-08T07:53:01.290Z,102252.22
2018-07-08T07:55:29.844Z,102248.56
2018-07-08T07:57:59.742Z,102250.94
2018-07-08T08:00:33.720Z,102244.22
2018-07-08T08:03:03.132Z,102244.09
2018-07-08T08:05:32.974Z,102243.91
2018-07-08T08:08:04.965Z,102236.62
2018-07-08T08:10:39.048Z,102245.35
2018-07-08T08:13:07.619Z,102240.23
2018-07-08T08:15:36.117Z,102242.27
2018-07-08T08:18:04.620Z,102240.29
2018-07-08T08:20:33.136Z,102235.86
2018-07-08T08:23:01.904Z,102239.94
2018-07-08T08:25:30.536Z,102241.27
2018-07-08T08:27:59.126Z,102243.34
2018-07-08T08:30:27.610Z,102246.41
2018-07-08T08:32:56.087Z,102242.84
2018-07-08T08:35:24.530Z,102244.59
2018-07-08T08:37:55.398Z,102244.86
2018-07-08T08:40:25.402Z,102243.17
2018-07-08T08:42:54.461Z,102247.17
2018-07-08T08:45:24.502Z,102242.56
2018-07-08T08:47:53.002Z,102243.59
2018-07-08T08:50:21.444Z,102238.98
2018-07-08T08:52:50.409Z,102240.08
2018-07-08T08:55:19.222Z,102243.59
2018-07-08T08:57:48.067Z,102241.69
2018-07-08T09:00:17.719Z,102243.08
2018-07-08T09:02:46.279Z,102241.07
2018-07-08T09:05:14.738Z,102239.00
2018-07-08T09:07:43.640Z,102238.68
2018-07-08T09:10:12.606Z,102238.64
2018-07-08T09:12:45.391Z,102239.11
2018-07-08T09:15:13.706Z,102246.63
2018-07-08T09:17:42.205Z,102247.39
2018-07-08T09:20:10.984Z,102249.72
2018-07-08T09:22:39.521Z,102245.58
2018-07-08T09:25:07.878Z,102243.08
2018-07-08T09:27:36.403Z,102241.34
2018-07-08T09:30:05.300Z,102238.86
2018-07-08T09:32:34.034Z,102234.59
2018-07-08T09:35:02.889Z,102236.74
2018-07-08T09:37:31.417Z,102238.97
2018-07-08T09:40:00.311Z,102235.62
2018-07-08T09:42:28.908Z,102232.05
2018-07-08T09:44:57.496Z,102240.91
2018-07-08T09:47:26.329Z,102229.01
2018-07-08T09:49:54.831Z,102235.01
2018-07-08T09:52:23.516Z,102231.58
2018-07-08T09:54:52.022Z,102231.73
2018-07-08T09:57:20.708Z,102227.67
2018-07-08T09:59:49.172Z,102243.07
2018-07-08T10:02:17.661Z,102226.31
2018-07-08T10:04:46.142Z,102225.52
2018-07-08T10:07:14.654Z,102228.66
2018-07-08T10:09:43.222Z,102226.66
2018-07-08T10:12:11.854Z,102224.19
2018-07-08T10:14:40.541Z,102221.80
2018-07-08T10:17:09.061Z,102219.79
2018-07-08T10:19:37.858Z,102212.33
2018-07-08T10:22:06.548Z,102216.05
2018-07-08T10:24:35.050Z,102213.08
2018-07-08T10:27:18.418Z,102214.58
2018-07-08T10:29:46.941Z,102201.69
2018-07-08T10:32:15.477Z,102207.88
2018-07-08T10:34:44.091Z,102211.94
2018-07-08T10:37:12.669Z,102205.80
2018-07-08T10:39:41.273Z,102210.39
2018-07-08T10:42:09.837Z,102197.06
2018-07-08T10:44:38.355Z,102200.67
2018-07-08T10:47:06.866Z,102198.40
2018-07-08T10:49:35.630Z,102205.41
2018-07-08T10:52:04.024Z,102199.36
2018-07-08T10:54:32.441Z,102204.99
2018-07-08T10:57:01.239Z,102208.73
2018-07-08T10:59:29.904Z,102210.83
2018-07-08T11:01:58.513Z,102202.39
2018-07-08T11:04:27.440Z,102196.57
2018-07-08T11:06:56.292Z,102199.98
2018-07-08T11:09:24.994Z,102192.52
2018-07-08T11:11:53.765Z,102195.28
2018-07-08T11:14:22.319Z,102190.24
2018-07-08T11:16:51.139Z,102182.22
2018-07-08T11:19:19.807Z,102172.72
2018-07-08T11:21:48.521Z,102173.61
2018-07-08T11:24:17.231Z,102175.38
2018-07-08T11:26:46.092Z,102167.98
2018-07-08T11:29:14.563Z,102167.77
2018-07-08T11:31:43.348Z,102155.37
2018-07-08T11:34:11.849Z,102159.33
2018-07-08T11:36:40.765Z,102159.50
2018-07-08T11:39:09.429Z,102162.17
2018-07-08T11:41:37.966Z,102151.85
2018-07-08T11:44:07.159Z,102161.19
2018-07-08T11:46:36.103Z,102162.19
2018-07-08T11:49:04.807Z,102149.22
2018-07-08T11:51:33.596Z,102154.77
2018-07-08T11:54:02.032Z,102150.12
2018-07-08T11:56:30.686Z,102150.92
2018-07-08T11:58:59.131Z,102146.30
2018-07-08T12:01:27.783Z,102148.66
2018-07-08T12:03:56.387Z,102147.89
2018-07-08T12:06:24.871Z,102146.41
2018-07-08T12:08:53.397Z,102141.89
2018-07-08T12:11:22.326Z,102142.11
2018-07-08T12:14:00.406Z,102141.53
2018-07-08T12:16:29.872Z,102144.64
2018-07-08T12:18:58.682Z,102141.06
2018-07-08T12:21:27.292Z,102150.02
2018-07-08T12:23:55.973Z,102144.12
2018-07-08T12:26:24.814Z,102136.19
2018-07-08T12:28:53.467Z,102134.83
2018-07-08T12:31:22.199Z,102135.13
2018-07-08T12:33:50.989Z,102130.45
2018-07-08T12:36:19.704Z,102129.83
2018-07-08T12:38:53.907Z,102135.91
2018-07-08T12:41:31.286Z,102126.82
2018-07-08T12:44:14.968Z,102130.17
2018-07-08T12:47:00.122Z,102129.71
2018-07-08T12:49:31.684Z,102117.42
2018-07-08T12:52:01.579Z,102121.61
2018-07-08T12:54:30.069Z,102121.50
2018-07-08T12:56:58.391Z,102127.14
2018-07-08T12:59:27.221Z,102114.94
2018-07-08T13:01:55.633Z,102106.98
2018-07-08T13:04:24.357Z,102100.38
2018-07-08T13:06:53.203Z,102103.45
2018-07-08T13:09:21.963Z,102111.34
2018-07-08T13:11:50.516Z,102098.83
2018-07-08T13:14:19.096Z,102103.48
2018-07-08T13:16:47.862Z,102102.19
2018-07-08T13:19:16.828Z,102096.96
2018-07-08T13:21:45.492Z,102099.37
2018-07-08T13:24:14.271Z,102100.38
2018-07-08T13:26:45.319Z,102104.72
2018-07-08T13:29:14.022Z,102107.80
2018-07-08T13:31:43.003Z,102100.72
2018-07-08T13:34:11.624Z,102099.59
2018-07-08T13:36:40.189Z,102093.64
2018-07-08T13:39:10.287Z,102096.36
2018-07-08T13:41:41.329Z,102099.44
2018-07-08T13:44:09.901Z,102092.05
2018-07-08T13:46:38.590Z,102092.83
2018-07-08T13:49:07.106Z,102084.70
2018-07-08T13:51:35.826Z,102086.12
2018-07-08T13:54:04.566Z,102083.25
2018-07-08T13:56:33.579Z,102088.73
2018-07-08T13:59:01.983Z,102087.67
2018-07-08T14:01:30.725Z,102080.31
2018-07-08T14:04:01.409Z,102081.41
2018-07-08T14:06:30.095Z,102087.45
2018-07-08T14:08:58.668Z,102080.17
2018-07-08T14:11:27.426Z,102082.30
2018-07-08T14:13:56.020Z,102076.14
2018-07-08T14:16:24.577Z,102070.78
2018-07-08T14:18:53.216Z,102064.37
2018-07-08T14:21:21.498Z,102069.59
2018-07-08T14:23:50.365Z,102062.44
2018-07-08T14:26:19.141Z,102059.67
2018-07-08T14:28:47.516Z,102052.42
2018-07-08T14:31:16.058Z,102046.86
2018-07-08T14:33:44.548Z,102059.64
2018-07-08T14:36:13.276Z,102055.38
2018-07-08T14:38:42.017Z,102051.87
2018-07-08T14:41:10.745Z,102053.65
2018-07-08T14:43:39.724Z,102054.28
2018-07-08T14:46:08.352Z,102044.65
2018-07-08T14:48:36.940Z,102044.35
2018-07-08T14:51:05.381Z,102038.38
2018-07-08T14:53:34.109Z,102045.59
2018-07-08T14:56:02.867Z,102042.27
2018-07-08T14:58:31.524Z,102035.51
2018-07-08T15:01:00.002Z,102041.25
2018-07-08T15:03:28.888Z,102035.95
2018-07-08T15:05:57.510Z,102039.95
2018-07-08T15:08:26.218Z,102028.12
2018-07-08T15:10:54.684Z,102015.80
2018-07-08T15:13:23.339Z,102028.41
2018-07-08T15:15:52.120Z,102029.52
2018-07-08T15:18:21.041Z,102024.84
2018-07-08T15:20:49.757Z,102023.17
2018-07-08T15:23:18.885Z,102022.36
2018-07-08T15:25:47.558Z,102022.45
2018-07-08T15:28:16.103Z,102021.56
2018-07-08T15:30:44.844Z,102021.26
2018-07-08T15:33:13.243Z,102024.58
2018-07-08T15:35:42.700Z,102020.64
2018-07-08T15:38:10.959Z,102024.75
2018-07-08T15:40:39.872Z,102021.61
2018-07-08T15:43:08.620Z,102017.17
2018-07-08T15:45:37.514Z,102017.25
2018-07-08T15:48:06.504Z,102012.06
2018-07-08T15:50:35.150Z,102016.02
2018-07-08T15:53:03.712Z,102015.92
2018-07-08T15:55:32.129Z,102009.34
2018-07-08T15:58:00.594Z,102008.42
2018-07-08T16:00:29.387Z,102015.12
2018-07-08T16:02:57.997Z,102012.59
2018-07-08T16:05:26.534Z,102010.98
2018-07-08T16:07:54.964Z,102008.34
2018-07-08T16:10:23.687Z,102002.87
2018-07-08T16:12:52.679Z,101997.69
2018-07-08T16:15:21.339Z,102004.19
2018-07-08T16:17:50.068Z,101997.05
2018-07-08T16:20:18.514Z,102007.20
2018-07-08T16:22:47.062Z,102002.80
2018-07-08T16:25:15.625Z,101994.72
2018-07-08T16:27:44.167Z,102003.98
2018-07-08T16:30:13.713Z,101990.57
2018-07-08T16:32:42.651Z,101994.88
2018-07-08T16:35:11.481Z,102001.50
2018-07-08T16:37:40.339Z,102003.95
2018-07-08T16:40:12.090Z,101992.87
2018-07-08T16:42:41.088Z,102007.01
2018-07-08T16:45:09.779Z,101997.04
2018-07-08T16:47:38.444Z,101992.89
2018-07-08T16:50:07.507Z,101996.30
2018-07-08T16:52:35.855Z,101997.92
2018-07-08T16:55:04.381Z,102001.33
2018-07-08T16:57:33.067Z,101998.55
2018-07-08T17:00:01.764Z,101994.42
2018-07-08T17:02:30.654Z,101996.64
2018-07-08T17:04:59.243Z,101995.70
2018-07-08T17:07:27.789Z,102005.02
2018-07-08T17:09:56.355Z,101993.74
2018-07-08T17:12:25.065Z,101993.05
2018-07-08T17:14:53.385Z,101992.41
2018-07-08T17:17:21.996Z,101996.78
2018-07-08T17:19:50.792Z,101989.84
2018-07-08T17:22:19.537Z,101995.62
2018-07-08T17:24:48.152Z,101994.80
2018-07-08T17:27:16.759Z,101991.02
2018-07-08T17:29:45.312Z,101989.31
2018-07-08T17:32:14.092Z,101994.80
2018-07-08T17:34:43.355Z,101992.60
2018-07-08T17:37:11.838Z,101987.20
2018-07-08T17:39:40.774Z,101992.23
2018-07-08T17:42:09.481Z,101982.94
2018-07-08T17:44:38.138Z,101984.42
2018-07-08T17:47:06.596Z,101987.42
2018-07-08T17:49:35.743Z,101995.84
2018-07-08T17:52:04.438Z,101991.34
2018-07-08T17:54:33.617Z,101983.42
2018-07-08T17:57:02.092Z,101990.56
2018-07-08T17:59:31.048Z,101993.33
2018-07-08T18:01:59.782Z,101984.93
2018-07-08T18:04:30.274Z,101988.66
2018-07-08T18:06:58.837Z,101995.97
2018-07-08T18:09:27.209Z,101995.70
2018-07-08T18:11:56.020Z,101991.25
2018-07-08T18:14:24.919Z,101989.94
2018-07-08T18:16:53.969Z,101987.06
2018-07-08T18:19:23.322Z,101993.32
2018-07-08T18:21:51.995Z,101989.37
2018-07-08T18:24:20.618Z,101995.56
2018-07-08T18:26:50.201Z,101997.19
2018-07-08T18:29:18.680Z,101991.31
2018-07-08T18:31:47.828Z,101990.83
2018-07-08T18:34:16.663Z,101988.41
2018-07-08T18:36:45.519Z,101989.91
2018-07-08T18:39:14.277Z,101991.03
2018-07-08T18:41:42.881Z,101993.06
2018-07-08T18:44:11.746Z,101992.60
2018-07-08T18:46:40.255Z,101994.06
2018-07-08T18:49:08.862Z,101995.58
2018-07-08T18:51:37.381Z,102002.59
2018-07-08T18:54:05.912Z,102000.62
2018-07-08T18:56:34.816Z,101994.00
2018-07-08T18:59:03.302Z,101999.47
2018-07-08T19:01:32.002Z,102003.94
2018-07-08T19:04:00.541Z,101998.14
2018-07-08T19:06:29.338Z,102004.50
2018-07-08T19:08:57.985Z,101994.66
2018-07-08T19:11:27.169Z,102005.87
2018-07-08T19:13:56.146Z,102017.11
2018-07-08T19:16:24.682Z,102011.48
2018-07-08T19:18:53.200Z,102010.23
2018-07-08T19:21:21.548Z,102016.23
2018-07-08T19:23:50.209Z,102011.94
2018-07-08T19:26:18.808Z,102002.98
2018-07-08T19:28:47.449Z,102016.17
2018-07-08T19:31:15.968Z,102013.89
2018-07-08T19:33:44.580Z,102017.31
2018-07-08T19:36:13.246Z,102020.37
2018-07-08T19:38:42.096Z,102021.39
2018-07-08T19:41:10.629Z,102017.90
2018-07-08T19:43:39.621Z,102020.95
2018-07-08T19:46:08.478Z,102022.77
2018-07-08T19:48:37.306Z,102021.62
2018-07-08T19:51:06.223Z,102027.98
2018-07-08T19:53:34.609Z,102027.63
2018-07-08T19:56:03.387Z,102032.05
2018-07-08T19:58:31.949Z,102036.78
2018-07-08T20:01:00.527Z,102034.28
2018-07-08T20:03:30.025Z,102036.45
2018-07-08T20:05:59.167Z,102035.41
2018-07-08T20:08:28.017Z,102043.11
2018-07-08T20:10:57.048Z,102040.95
2018-07-08T20:13:26.053Z,102042.62
2018-07-08T20:15:55.018Z,102044.66
2018-07-08T20:18:23.827Z,102050.18
2018-07-08T20:20:52.402Z,102049.84
2018-07-08T20:23:21.199Z,102046.32
2018-07-08T20:25:50.602Z,102054.56
2018-07-08T20:28:19.309Z,102057.45
2018-07-08T20:30:48.220Z,102065.39
2018-07-08T20:33:17.146Z,102059.70
2018-07-08T20:35:45.977Z,102064.07
2018-07-08T20:38:14.660Z,102066.45
2018-07-08T20:40:43.137Z,102063.05
2018-07-08T20:43:11.576Z,102061.88
2018-07-08T20:45:40.484Z,102064.73
2018-07-08T20:48:09.332Z,102065.97
2018-07-08T20:50:37.959Z,102062.09
2018-07-08T20:53:06.538Z,102062.30
2018-07-08T20:55:35.551Z,102070.45
2018-07-08T20:58:04.413Z,102071.12
2018-07-08T21:00:33.256Z,102073.58
2018-07-08T21:03:01.784Z,102075.14
2018-07-08T21:05:30.880Z,102064.03
2018-07-08T21:07:59.653Z,102070.44
2018-07-08T21:10:28.352Z,102074.37
2018-07-08T21:12:56.940Z,102075.70
2018-07-08T21:15:25.508Z,102077.61
2018-07-08T21:17:54.090Z,102082.09
2018-07-08T21:20:22.678Z,102079.16
2018-07-08T21:22:51.250Z,102090.94
2018-07-08T21:25:19.857Z,102086.39
2018-07-08T21:27:48.816Z,102088.81
2018-07-08T21:30:17.275Z,102087.79
2018-07-08T21:32:45.692Z,102091.16
2018-07-08T21:35:14.141Z,102097.43
2018-07-08T21:37:42.669Z,102091.09
2018-07-08T21:40:11.241Z,102094.64
2018-07-08T21:42:39.826Z,102092.52
2018-07-08T21:45:08.352Z,102100.53
2018-07-08T21:47:37.127Z,102090.89
2018-07-08T21:50:05.697Z,102092.75
2018-07-08T21:52:34.790Z,102096.01
2018-07-08T21:55:03.751Z,102092.41
2018-07-08T21:57:32.426Z,102094.25
2018-07-08T22:00:01.256Z,102092.17
2018-07-08T22:02:29.934Z,102089.30
2018-07-08T22:04:58.465Z,102095.84
2018-07-08T22:07:32.718Z,102098.18
2018-07-08T22:10:01.691Z,102095.94
2018-07-08T22:12:30.801Z,102102.00
2018-07-08T22:14:59.417Z,102100.97
2018-07-08T22:17:28.068Z,102101.31
2018-07-08T22:19:56.531Z,102093.99
2018-07-08T22:22:25.158Z,102102.89
2018-07-08T22:24:58.127Z,102102.28
2018-07-08T22:27:26.582Z,102105.06
2018-07-08T22:29:55.370Z,102099.48
2018-07-08T22:32:23.948Z,102105.55
2018-07-08T22:34:52.590Z,102104.03
2018-07-08T22:37:21.179Z,102104.99
2018-07-08T22:39:49.933Z,102106.31
2018-07-08T22:42:18.300Z,102113.14
2018-07-08T22:44:46.875Z,102111.23
2018-07-08T22:47:15.389Z,102103.54
2018-07-08T22:49:44.053Z,102109.33
2018-07-08T22:52:12.705Z,102100.55
2018-07-08T22:54:41.417Z,102107.09
2018-07-08T22:57:09.994Z,102116.70
2018-07-08T22:59:55.446Z,102109.77
2018-07-08T23:02:43.330Z,102103.52
2018-07-08T23:05:12.225Z,102111.68
2018-07-08T23:07:41.083Z,102109.18
2018-07-08T23:10:11.008Z,102109.91
2018-07-08T23:12:39.676Z,102107.89
2018-07-08T23:15:09.999Z,102107.01
2018-07-08T23:17:43.187Z,102101.77
2018-07-08T23:20:12.099Z,102094.20
2018-07-08T23:22:54.318Z,102096.36
2018-07-08T23:25:23.597Z,102099.09
2018-07-08T23:27:52.759Z,102101.59
2018-07-08T23:30:21.713Z,102098.36
2018-07-08T23:32:50.540Z,102105.49
2018-07-08T23:35:19.189Z,102105.49
2018-07-08T23:37:47.701Z,102100.13
2018-07-08T23:40:16.293Z,102099.22
2018-07-08T23:42:44.779Z,102098.09
2018-07-08T23:45:19.346Z,102102.06
2018-07-08T23:47:47.838Z,102107.94
2018-07-08T23:50:16.329Z,102106.80
2018-07-08T23:52:44.747Z,102107.13
2018-07-08T23:55:13.182Z,102105.72
2018-07-08T23:57:41.771Z,102101.44
